Time;durP1;ratioP1;P1;durP2;ratioP2;P2;SDS_P1;SDS_P2;PMS_P1;PMS_P2;Temp;Humidity;BMP_temperature;BMP_pressure;BME280_temperature;BME280_humidity;BME280_pressure;Samples;Min_cycle;Max_cycle;Signal;HPM_P1;HPM_P2
2022/05/11 00:00:50;;;;;;;12.10;9.43;;;25.90;99.90;;;;;;1826990;76;21490;-69
2022/05/11 00:03:22;;;;;;;12.70;10.75;;;26.20;99.90;;;;;;1822794;75;21175;-69
2022/05/11 00:05:53;;;;;;;13.60;9.90;;;26.10;99.90;;;;;;1839650;76;21249;-69
2022/05/11 00:08:24;;;;;;;12.82;11.22;;;26.10;99.90;;;;;;1816001;76;21181;-69
2022/05/11 00:10:54;;;;;;;16.67;11.88;;;26.00;99.90;;;;;;1831649;76;21187;-70
2022/05/11 00:13:27;;;;;;;16.25;11.85;;;26.30;99.90;;;;;;1839320;76;21202;-71
2022/05/11 00:15:58;;;;;;;18.25;12.73;;;26.30;99.90;;;;;;1834490;76;21286;-70
2022/05/11 00:18:29;;;;;;;14.87;12.20;;;26.40;99.90;;;;;;1819962;77;21750;-70
2022/05/11 00:21:04;;;;;;;16.20;11.60;;;26.30;99.90;;;;;;1828277;76;21581;-70
2022/05/11 00:23:35;;;;;;;17.37;11.28;;;26.20;99.90;;;;;;1833415;76;21180;-69
2022/05/11 00:26:06;;;;;;;12.35;10.45;;;26.40;99.90;;;;;;1827470;75;21666;-69
2022/05/11 00:28:37;;;;;;;16.90;11.28;;;26.40;99.90;;;;;;1830644;76;21221;-69
2022/05/11 00:31:09;;;;;;;13.40;10.10;;;26.30;99.90;;;;;;1836482;76;21250;-69
2022/05/11 00:33:41;;;;;;;14.07;10.72;;;26.40;99.90;;;;;;1819791;76;21096;-69
2022/05/11 00:36:14;;;;;;;13.38;10.50;;;26.50;99.90;;;;;;1825193;76;21194;-69
2022/05/11 00:38:47;;;;;;;14.25;9.85;;;26.60;99.90;;;;;;1843786;76;21108;-69
2022/05/11 00:41:17;;;;;;;14.93;10.58;;;26.50;99.90;;;;;;1827556;76;21721;-68
2022/05/11 00:43:51;;;;;;;13.08;9.78;;;26.50;99.90;;;;;;1818166;77;21101;-68
2022/05/11 00:46:24;;;;;;;12.55;9.10;;;26.60;99.90;;;;;;1837074;77;21621;-70
2022/05/11 00:51:34;;;;;;;13.60;10.23;;;26.70;99.90;;;;;;1836414;76;21131;-69
2022/05/11 00:54:06;;;;;;;12.20;10.90;;;26.70;99.90;;;;;;1839836;76;21209;-69
2022/05/11 00:56:40;;;;;;;13.50;10.38;;;26.60;99.90;;;;;;1842791;76;21102;-69
2022/05/11 00:59:13;;;;;;;13.78;10.68;;;26.90;99.90;;;;;;1834249;76;21675;-69
2022/05/11 01:01:45;;;;;;;14.43;11.12;;;26.70;99.90;;;;;;1836149;75;21179;-69
2022/05/11 01:04:19;;;;;;;13.75;11.05;;;26.70;99.90;;;;;;1835329;76;21224;-69
2022/05/11 01:06:50;;;;;;;14.75;11.20;;;26.80;99.90;;;;;;1828534;77;21193;-69
2022/05/11 01:09:21;;;;;;;15.68;12.20;;;27.00;99.90;;;;;;1833733;76;21185;-69
2022/05/11 01:11:54;;;;;;;13.83;11.30;;;26.90;99.90;;;;;;1830049;77;21192;-69
2022/05/11 01:14:28;;;;;;;16.52;12.15;;;27.00;99.90;;;;;;1837032;76;21208;-69
2022/05/11 01:16:59;;;;;;;16.12;12.35;;;26.80;99.90;;;;;;1813017;76;21249;-69
2022/05/11 01:19:33;;;;;;;16.15;11.75;;;26.90;99.90;;;;;;1813712;76;21191;-69
2022/05/11 01:22:06;;;;;;;16.27;11.18;;;26.90;99.90;;;;;;1824554;76;21683;-68
2022/05/11 01:24:41;;;;;;;10.65;9.50;;;27.10;99.90;;;;;;1824510;76;21865;-69
2022/05/11 01:27:14;;;;;;;15.15;11.25;;;27.00;99.90;;;;;;1814525;76;22279;-69
2022/05/11 01:29:45;;;;;;;14.75;10.85;;;27.00;99.90;;;;;;1814019;76;21563;-69
2022/05/11 01:32:15;;;;;;;12.53;10.43;;;27.10;99.90;;;;;;1847495;76;21680;-69
2022/05/11 01:34:48;;;;;;;13.53;11.08;;;27.20;99.90;;;;;;1844583;76;21106;-69
2022/05/11 01:37:22;;;;;;;12.20;10.88;;;27.10;99.90;;;;;;1845394;76;21233;-69
2022/05/11 01:39:54;;;;;;;14.55;10.63;;;27.20;99.90;;;;;;1830192;76;21182;-69
2022/05/11 01:42:25;;;;;;;12.05;10.18;;;27.20;99.90;;;;;;1827918;75;21173;-69
2022/05/11 01:44:56;;;;;;;13.25;11.68;;;27.40;99.90;;;;;;1838451;75;21219;-69
2022/05/11 01:47:27;;;;;;;15.03;10.23;;;27.30;99.90;;;;;;1834507;76;21240;-70
2022/05/11 01:49:58;;;;;;;11.55;9.60;;;27.30;99.90;;;;;;1826526;76;21143;-70
2022/05/11 01:52:28;;;;;;;10.95;9.80;;;27.50;99.90;;;;;;1821584;77;21112;-69
2022/05/11 01:54:59;;;;;;;13.85;12.25;;;27.60;99.90;;;;;;1821245;76;21837;-70
2022/05/11 01:57:30;;;;;;;11.95;10.40;;;27.60;99.90;;;;;;1830789;77;21270;-69
2022/05/11 02:00:01;;;;;;;13.45;10.85;;;27.50;99.90;;;;;;1847630;75;21281;-70
2022/05/11 02:02:32;;;;;;;10.48;9.18;;;27.70;99.90;;;;;;1807366;77;21192;-70
2022/05/11 02:10:09;;;;;;;12.10;10.25;;;27.80;99.90;;;;;;1762697;78;21634;-71
2022/05/11 02:12:41;;;;;;;13.78;10.35;;;27.80;99.90;;;;;;1838402;76;21689;-70
2022/05/11 02:15:15;;;;;;;12.78;8.68;;;27.90;99.90;;;;;;1821666;77;21823;-72
2022/05/11 02:17:46;;;;;;;11.57;8.25;;;27.90;99.90;;;;;;1817265;76;21229;-71
2022/05/11 02:20:22;;;;;;;11.57;8.88;;;27.90;99.90;;;;;;1835823;76;21615;-71
2022/05/11 02:22:53;;;;;;;11.25;8.15;;;28.10;99.90;;;;;;1831813;75;21134;-71
2022/05/11 02:25:24;;;;;;;10.85;9.75;;;28.00;99.90;;;;;;1810393;76;21284;-71
2022/05/11 02:27:55;;;;;;;13.15;10.18;;;28.10;99.90;;;;;;1780976;77;21226;-71
2022/05/11 02:30:29;;;;;;;11.65;9.83;;;28.30;99.90;;;;;;1803324;78;21216;-71
2022/05/11 02:33:00;;;;;;;14.38;10.18;;;28.20;99.90;;;;;;1800963;77;21121;-71
2022/05/11 02:35:31;;;;;;;14.45;9.88;;;28.20;99.90;;;;;;1840637;77;21178;-71
2022/05/11 02:38:04;;;;;;;11.65;8.90;;;28.40;99.90;;;;;;1807737;77;21759;-71
2022/05/11 02:40:37;;;;;;;10.72;7.35;;;28.40;99.90;;;;;;1765369;78;21200;-71
2022/05/11 02:43:10;;;;;;;8.95;7.35;;;28.50;99.90;;;;;;1805617;77;21209;-70
2022/05/11 02:45:43;;;;;;;11.38;7.25;;;28.70;99.90;;;;;;1820506;76;21682;-70
2022/05/11 02:48:17;;;;;;;8.40;7.47;;;28.60;99.90;;;;;;1803767;78;21241;-71
2022/05/11 02:50:50;;;;;;;8.18;6.75;;;28.60;99.90;;;;;;1780170;78;21078;-70
2022/05/11 02:53:40;;;;;;;6.17;5.40;;;28.60;99.90;;;;;;1801435;78;21580;-69
2022/05/11 02:56:11;;;;;;;9.80;6.40;;;28.70;99.90;;;;;;1841371;75;21738;-71
2022/05/11 02:58:42;;;;;;;7.78;5.90;;;28.70;99.90;;;;;;1821388;76;21134;-70
2022/05/11 03:01:14;;;;;;;7.00;6.03;;;28.80;99.90;;;;;;1826637;76;21318;-69
2022/05/11 03:03:45;;;;;;;7.55;5.95;;;28.90;99.90;;;;;;1796215;77;21184;-70
2022/05/11 03:06:18;;;;;;;7.67;6.00;;;28.80;99.90;;;;;;1843195;76;21152;-70
2022/05/11 03:08:49;;;;;;;6.87;5.62;;;28.90;99.90;;;;;;1840716;75;21148;-70
2022/05/11 03:11:19;;;;;;;9.40;5.10;;;29.20;99.90;;;;;;1844782;76;22359;-70
2022/05/11 03:13:51;;;;;;;7.37;4.85;;;29.20;99.90;;;;;;1833602;75;21174;-70
2022/05/11 03:16:23;;;;;;;8.93;4.87;;;29.40;99.90;;;;;;1825886;75;21167;-70
2022/05/11 03:18:57;;;;;;;6.37;5.20;;;29.50;99.90;;;;;;1847591;75;21157;-70
2022/05/11 03:21:27;;;;;;;8.20;5.47;;;29.40;99.90;;;;;;1869725;75;21194;-70
2022/05/11 03:23:57;;;;;;;6.00;5.08;;;29.30;99.90;;;;;;1835185;75;21191;-69
2022/05/11 03:26:29;;;;;;;6.47;4.97;;;29.50;99.90;;;;;;1838950;75;21683;-70
2022/05/11 03:29:00;;;;;;;7.03;4.60;;;29.50;99.90;;;;;;1846070;75;21244;-70
2022/05/11 03:31:31;;;;;;;6.17;5.12;;;29.40;99.90;;;;;;1842891;76;21157;-70
2022/05/11 03:36:54;;;;;;;5.83;5.12;;;29.60;99.90;;;;;;1825499;77;21653;-70
2022/05/11 03:39:24;;;;;;;5.97;4.75;;;29.50;99.90;;;;;;1801856;78;21150;-70
2022/05/11 03:41:55;;;;;;;8.55;4.62;;;29.60;99.90;;;;;;1815971;77;21149;-69
2022/05/11 03:44:26;;;;;;;7.22;4.47;;;29.80;99.90;;;;;;1818680;77;21697;-69
2022/05/11 03:46:57;;;;;;;6.50;4.58;;;30.10;99.90;;;;;;1760970;80;21191;-69
2022/05/11 03:49:30;;;;;;;6.70;4.60;;;30.20;99.90;;;;;;1771222;79;21734;-70
2022/05/11 03:52:02;;;;;;;6.62;5.10;;;30.20;99.90;;;;;;1764812;79;21152;-69
2022/05/11 03:54:34;;;;;;;6.90;3.98;;;30.20;99.90;;;;;;1770867;79;21574;-70
2022/05/11 03:57:05;;;;;;;5.60;4.03;;;30.00;99.90;;;;;;1750587;80;21764;-70
2022/05/11 03:59:36;;;;;;;8.33;4.47;;;30.00;99.90;;;;;;1750523;80;21317;-70
2022/05/11 04:02:08;;;;;;;7.12;4.58;;;30.00;99.90;;;;;;1772424;79;21168;-70
2022/05/11 04:04:39;;;;;;;6.03;4.15;;;30.00;99.90;;;;;;1775252;78;21591;-70
2022/05/11 04:07:10;;;;;;;7.58;3.98;;;30.20;99.90;;;;;;1793243;78;21124;-70
2022/05/11 04:09:41;;;;;;;5.10;3.77;;;30.00;99.90;;;;;;1772958;78;21683;-70
2022/05/11 04:12:13;;;;;;;7.45;4.42;;;30.10;99.90;;;;;;1787382;78;22069;-70
2022/05/11 04:14:44;;;;;;;5.60;4.25;;;30.10;99.90;;;;;;1804556;78;21159;-70
2022/05/11 04:17:16;;;;;;;4.25;3.20;;;30.30;99.90;;;;;;1783694;78;21254;-70
2022/05/11 04:19:47;;;;;;;6.10;3.85;;;30.40;99.90;;;;;;1760768;79;21669;-69
2022/05/11 04:22:18;;;;;;;5.80;3.75;;;30.60;99.90;;;;;;1786793;78;21120;-69
2022/05/11 04:24:49;;;;;;;5.70;3.80;;;30.70;99.90;;;;;;1796921;79;21178;-69
2022/05/11 04:27:19;;;;;;;6.17;3.62;;;31.00;99.90;;;;;;1825991;77;21690;-68
2022/05/11 04:29:51;;;;;;;7.25;4.15;;;31.00;99.90;;;;;;1799598;78;21834;-68
2022/05/11 04:32:21;;;;;;;6.30;3.55;;;31.20;99.90;;;;;;1757555;80;21245;-69
2022/05/11 04:34:53;;;;;;;5.42;2.87;;;31.10;99.90;;;;;;1747742;80;21742;-69
2022/05/11 04:37:24;;;;;;;4.53;3.65;;;31.30;99.90;;;;;;1757769;80;21131;-69
2022/05/11 04:39:55;;;;;;;3.12;2.15;;;31.30;99.90;;;;;;1773291;78;21251;-70
2022/05/11 04:42:26;;;;;;;3.50;2.60;;;31.10;99.90;;;;;;1750989;81;21215;-70
2022/05/11 04:44:57;;;;;;;4.92;2.30;;;31.10;99.90;;;;;;1758382;79;21136;-70
2022/05/11 04:47:28;;;;;;;4.92;2.75;;;31.20;99.90;;;;;;1773668;78;21124;-70
2022/05/11 04:49:59;;;;;;;4.17;2.75;;;31.30;99.90;;;;;;1782407;79;21286;-71
2022/05/11 04:52:30;;;;;;;4.30;2.58;;;31.40;99.90;;;;;;1793893;78;21131;-71
2022/05/11 04:55:01;;;;;;;4.90;2.80;;;31.50;99.90;;;;;;1803408;78;21116;-71
2022/05/11 04:57:33;;;;;;;2.80;2.05;;;31.40;99.90;;;;;;1800374;77;21697;-70
2022/05/11 05:00:09;;;;;;;3.33;2.47;;;31.40;99.90;;;;;;1790267;77;21183;-71
2022/05/11 05:02:39;;;;;;;4.03;3.27;;;31.60;99.90;;;;;;1810367;77;22819;-71
2022/05/11 05:05:12;;;;;;;4.97;2.95;;;31.50;99.90;;;;;;1820965;76;21198;-71
2022/05/11 05:07:43;;;;;;;4.80;3.10;;;31.40;99.90;;;;;;1836524;77;21178;-70
2022/05/11 05:10:16;;;;;;;4.40;2.98;;;31.30;99.90;;;;;;1794543;78;21246;-70
2022/05/11 05:12:46;;;;;;;5.47;2.50;;;31.20;99.90;;;;;;1764175;80;21302;-71
2022/05/11 05:15:19;;;;;;;3.05;2.27;;;31.40;99.90;;;;;;1783033;78;21169;-70
2022/05/11 05:17:52;;;;;;;3.17;2.42;;;31.20;99.90;;;;;;1804691;77;21191;-70
2022/05/11 05:20:23;;;;;;;4.75;2.50;;;31.30;99.90;;;;;;1797663;77;21721;-70
2022/05/11 05:22:55;;;;;;;3.83;2.60;;;31.30;99.90;;;;;;1763927;79;21607;-71
2022/05/11 05:25:27;;;;;;;4.62;2.70;;;31.50;99.90;;;;;;1810665;78;21178;-70
2022/05/11 05:31:04;;;;;;;4.87;2.10;;;31.60;99.90;;;;;;1753183;79;21270;-70
2022/05/11 05:33:03;;;;;;;4.37;2.37;;;31.70;99.90;;;;;;1766007;79;21614;-70
2022/05/11 05:35:38;;;;;;;2.58;1.70;;;31.70;99.90;;;;;;1791499;78;21806;-69
2022/05/11 05:38:09;;;;;;;3.00;1.52;;;31.80;99.90;;;;;;1818570;77;21213;-71
2022/05/11 05:40:40;;;;;;;3.33;1.75;;;32.00;99.90;;;;;;1778831;78;21255;-71
2022/05/11 05:43:12;;;;;;;3.33;1.80;;;32.30;99.90;;;;;;1816846;77;21658;-71
2022/05/11 05:45:45;;;;;;;3.30;1.92;;;32.50;99.90;;;;;;1790960;78;21163;-71
2022/05/11 05:48:17;;;;;;;3.67;2.58;;;32.30;99.90;;;;;;1795796;77;21328;-71
2022/05/11 05:50:48;;;;;;;5.85;3.12;;;32.30;99.90;;;;;;1802996;78;22304;-70
2022/05/11 05:53:21;;;;;;;4.22;3.20;;;32.50;99.90;;;;;;1800122;79;21245;-71
2022/05/11 05:55:52;;;;;;;5.87;3.35;;;32.40;99.90;;;;;;1792233;78;21704;-69
2022/05/11 05:58:23;;;;;;;4.03;3.08;;;32.40;99.90;;;;;;1809142;77;21453;-70
2022/05/11 06:00:54;;;;;;;4.12;2.60;;;32.50;99.90;;;;;;1781562;78;22860;-70
2022/05/11 06:03:28;;;;;;;5.92;2.80;;;32.30;99.90;;;;;;1781438;78;21210;-70
2022/05/11 06:06:00;;;;;;;3.95;2.50;;;32.30;99.90;;;;;;1774903;78;21226;-71
2022/05/11 06:08:31;;;;;;;5.42;2.83;;;32.20;99.90;;;;;;1776337;78;21260;-71
2022/05/11 06:11:07;;;;;;;3.42;2.70;;;31.80;99.90;;;;;;1794874;77;21226;-70
2022/05/11 06:13:41;;;;;;;4.58;2.80;;;31.60;99.90;;;;;;1807134;77;21175;-69
2022/05/11 06:16:14;;;;;;;3.95;2.30;;;31.70;99.90;;;;;;1799978;78;21135;-69
2022/05/11 06:18:46;;;;;;;3.72;2.05;;;31.60;99.90;;;;;;1791334;78;21605;-69
2022/05/11 06:21:17;;;;;;;8.68;3.47;;;31.30;99.90;;;;;;1797670;78;21223;-69
2022/05/11 06:23:48;;;;;;;4.45;2.15;;;31.20;99.90;;;;;;1794311;77;21120;-69
2022/05/11 06:26:41;;;;;;;2.90;1.90;;;31.20;99.90;;;;;;1781914;77;21210;-69
2022/05/11 06:29:16;;;;;;;3.35;2.30;;;31.40;99.90;;;;;;1786172;78;21105;-69
2022/05/11 06:31:47;;;;;;;6.05;2.40;;;31.10;99.90;;;;;;1786737;76;21267;-70
2022/05/11 06:34:18;;;;;;;5.05;2.75;;;31.30;99.90;;;;;;1778706;78;21185;-71
2022/05/11 06:36:49;;;;;;;3.55;2.50;;;31.00;99.90;;;;;;1771531;80;21146;-71
2022/05/11 06:39:23;;;;;;;4.62;2.90;;;31.00;99.90;;;;;;1784820;78;21344;-70
2022/05/11 06:41:52;;;;;;;3.40;2.10;;;31.00;99.90;;;;;;1779323;78;21222;-70
2022/05/11 06:44:23;;;;;;;4.92;2.40;;;31.10;99.90;;;;;;1787098;79;21251;-71
2022/05/11 06:46:57;;;;;;;3.17;2.00;;;31.20;99.90;;;;;;1780547;80;21637;-71
2022/05/11 06:49:28;;;;;;;4.42;2.15;;;31.20;99.90;;;;;;1805594;78;21285;-70
2022/05/11 06:52:00;;;;;;;5.35;3.52;;;31.20;99.90;;;;;;1820353;78;21866;-71
2022/05/11 06:59:35;;;;;;;4.17;2.20;;;31.60;99.90;;;;;;1783227;77;22255;-70
2022/05/11 07:02:06;;;;;;;3.12;2.08;;;31.70;99.90;;;;;;1750092;81;21143;-69
2022/05/11 07:04:38;;;;;;;4.55;2.75;;;31.90;99.90;;;;;;1710019;81;21598;-69
2022/05/11 07:07:09;;;;;;;3.55;2.22;;;31.70;99.90;;;;;;1721645;82;21251;-69
2022/05/11 07:09:40;;;;;;;3.70;2.30;;;31.80;99.90;;;;;;1725660;82;21705;-69
2022/05/11 07:12:18;;;;;;;3.55;2.27;;;31.60;99.90;;;;;;1728646;81;21682;-69
2022/05/11 07:14:45;;;;;;;4.37;2.22;;;31.50;99.90;;;;;;1730034;80;21137;-69
2022/05/11 07:17:18;;;;;;;8.25;2.30;;;31.70;99.90;;;;;;1734047;80;21209;-69
2022/05/11 07:19:49;;;;;;;4.17;2.10;;;31.60;99.90;;;;;;1713902;81;21186;-69
2022/05/11 07:22:20;;;;;;;5.25;2.00;;;31.40;99.90;;;;;;1736283;80;21141;-68
2022/05/11 07:24:53;;;;;;;3.50;2.20;;;31.50;99.90;;;;;;1680325;83;21217;-69
2022/05/11 07:27:25;;;;;;;4.90;2.02;;;31.20;99.90;;;;;;1755886;79;21176;-68
2022/05/11 07:29:57;;;;;;;4.47;2.17;;;31.40;99.90;;;;;;1755921;80;21582;-69
2022/05/11 07:32:28;;;;;;;2.87;2.22;;;31.40;99.90;;;;;;1715355;81;21210;-69
2022/05/11 07:34:58;;;;;;;4.62;2.60;;;31.10;99.90;;;;;;1712939;82;21194;-68
2022/05/11 07:37:31;;;;;;;4.83;2.35;;;31.00;99.90;;;;;;1731053;81;21278;-68
2022/05/11 07:40:04;;;;;;;5.15;2.22;;;31.00;99.90;;;;;;1743571;80;21235;-69
2022/05/11 07:42:35;;;;;;;5.12;3.70;;;31.20;99.90;;;;;;1746160;80;21165;-69
2022/05/11 07:45:07;;;;;;;7.05;5.12;;;30.90;99.90;;;;;;1736582;80;21796;-69
2022/05/11 07:47:40;;;;;;;8.63;5.03;;;30.80;99.90;;;;;;1720348;81;21238;-69
2022/05/11 07:50:13;;;;;;;11.97;4.60;;;30.50;99.90;;;;;;1691631;83;21245;-69
2022/05/11 07:52:46;;;;;;;7.92;3.67;;;30.30;99.90;;;;;;1731201;81;21603;-68
2022/05/11 07:55:18;;;;;;;9.50;4.12;;;30.00;99.90;;;;;;1731631;81;21361;-68
2022/05/11 08:00:22;;;;;;;6.28;3.47;;;30.00;99.90;;;;;;1741934;80;21233;-70
2022/05/11 08:02:55;;;;;;;10.68;4.03;;;29.90;99.90;;;;;;1683046;83;21324;-69
2022/05/11 08:05:26;;;;;;;5.80;3.50;;;29.70;99.90;;;;;;1723613;81;21169;-70
2022/05/11 08:07:58;;;;;;;7.87;3.42;;;29.70;99.90;;;;;;1764848;80;21180;-70
2022/05/11 08:10:33;;;;;;;7.33;3.30;;;29.70;99.90;;;;;;1754091;79;21197;-68
2022/05/11 08:13:07;;;;;;;6.65;3.15;;;29.70;99.90;;;;;;1737682;81;21693;-70
2022/05/11 08:15:47;;;;;;;10.95;3.55;;;29.60;99.90;;;;;;1702009;82;21222;-69
2022/05/11 08:18:18;;;;;;;6.97;3.12;;;29.80;99.90;;;;;;1733794;81;21168;-69
2022/05/11 08:20:49;;;;;;;10.95;3.27;;;29.60;99.90;;;;;;1742161;80;21752;-70
2022/05/11 08:23:21;;;;;;;14.10;6.12;;;29.80;99.90;;;;;;1711828;82;21683;-70
2022/05/11 08:25:54;;;;;;;6.65;3.22;;;29.80;99.90;;;;;;1677539;83;21244;-69
2022/05/11 08:28:26;;;;;;;8.73;3.62;;;29.60;99.90;;;;;;1756842;80;21557;-69
2022/05/11 08:33:30;;;;;;;13.90;8.70;;;29.70;99.90;;;;;;1756365;81;21279;-69
2022/05/11 08:36:06;;;;;;;10.10;7.30;;;29.50;99.90;;;;;;1755151;79;21982;-69
2022/05/11 08:38:39;;;;;;;12.75;7.42;;;29.40;99.90;;;;;;1761476;79;21133;-69
2022/05/11 08:41:13;;;;;;;10.93;6.92;;;29.50;99.90;;;;;;1752642;80;21162;-70
2022/05/11 08:43:52;;;;;;;9.63;6.50;;;29.50;99.90;;;;;;1757769;80;21126;-69
2022/05/11 08:46:26;;;;;;;8.58;5.55;;;29.40;99.90;;;;;;1762592;79;21583;-71
2022/05/11 08:48:56;;;;;;;12.93;5.58;;;29.50;99.90;;;;;;1762345;80;21182;-70
2022/05/11 08:51:28;;;;;;;9.28;5.53;;;29.50;99.90;;;;;;1764337;80;21275;-70
2022/05/11 08:54:01;;;;;;;9.13;5.20;;;29.30;99.90;;;;;;1714184;81;21188;-70
2022/05/11 08:56:33;;;;;;;7.60;5.40;;;29.30;99.90;;;;;;1727096;81;21187;-70
2022/05/11 08:59:07;;;;;;;9.28;5.17;;;29.40;99.90;;;;;;1695813;82;21219;-70
2022/05/11 09:01:42;;;;;;;8.73;4.58;;;29.40;99.90;;;;;;1714977;81;21288;-70
2022/05/11 09:04:15;;;;;;;6.80;4.70;;;29.30;99.90;;;;;;1737790;81;21170;-70
2022/05/11 09:06:46;;;;;;;11.73;4.60;;;29.30;99.90;;;;;;1736701;81;21156;-70
2022/05/11 09:09:17;;;;;;;7.97;4.80;;;29.40;99.90;;;;;;1737020;81;21732;-70
2022/05/11 09:11:50;;;;;;;9.90;4.40;;;29.30;99.90;;;;;;1729867;79;21542;-71
2022/05/11 09:14:24;;;;;;;8.45;4.33;;;29.30;99.90;;;;;;1700040;82;21208;-70
2022/05/11 09:16:54;;;;;;;8.75;4.35;;;29.40;99.90;;;;;;1722824;81;21287;-72
2022/05/11 09:19:28;;;;;;;5.47;4.15;;;29.30;99.90;;;;;;1766175;78;21225;-70
2022/05/11 09:22:01;;;;;;;6.97;4.05;;;29.30;99.90;;;;;;1766816;80;21992;-70
2022/05/11 09:24:34;;;;;;;6.72;4.03;;;29.40;99.90;;;;;;1742284;79;21198;-70
2022/05/11 09:27:12;;;;;;;9.98;4.72;;;29.40;99.90;;;;;;1701475;82;21288;-70
2022/05/11 09:29:45;;;;;;;10.43;5.03;;;29.60;99.90;;;;;;1698147;83;21131;-71
2022/05/11 09:32:19;;;;;;;7.67;4.47;;;29.50;99.90;;;;;;1734932;81;21259;-71
2022/05/11 09:34:50;;;;;;;7.60;3.87;;;29.60;99.90;;;;;;1707225;82;21191;-71
2022/05/11 09:37:24;;;;;;;7.05;3.95;;;29.60;99.90;;;;;;1728906;79;21301;-71
2022/05/11 09:39:57;;;;;;;8.23;3.77;;;29.50;99.90;;;;;;1749756;80;21745;-71
2022/05/11 09:42:30;;;;;;;8.10;4.90;;;29.60;99.90;;;;;;1751995;80;21282;-70
2022/05/11 09:45:04;;;;;;;9.08;4.58;;;29.70;99.90;;;;;;1750170;80;21201;-69
2022/05/11 09:47:36;;;;;;;7.03;4.22;;;29.70;99.90;;;;;;1758099;80;21200;-70
2022/05/11 09:50:10;;;;;;;8.58;4.45;;;29.50;99.90;;;;;;1766428;80;21689;-71
2022/05/11 09:52:44;;;;;;;11.93;6.28;;;29.40;99.90;;;;;;1757280;80;21592;-69
2022/05/11 09:55:17;;;;;;;12.93;6.03;;;29.50;99.90;;;;;;1760980;80;21194;-69
2022/05/11 09:57:50;;;;;;;10.78;5.55;;;29.60;99.90;;;;;;1761340;79;21129;-69
2022/05/11 10:00:26;;;;;;;13.15;6.53;;;29.50;99.90;;;;;;1733775;80;21311;-69
2022/05/11 10:02:58;;;;;;;12.65;5.20;;;29.50;99.90;;;;;;1737350;80;21205;-69
2022/05/11 10:05:34;;;;;;;14.43;6.47;;;29.60;99.90;;;;;;1703579;82;21238;-69
2022/05/11 10:08:08;;;;;;;11.97;6.80;;;29.50;99.90;;;;;;1731458;81;21178;-70
2022/05/11 10:10:41;;;;;;;13.20;7.30;;;29.70;99.90;;;;;;1745267;80;22133;-70
2022/05/11 10:13:15;;;;;;;10.93;5.70;;;29.50;99.90;;;;;;1766876;79;21697;-69
2022/05/11 10:23:31;;;;;;;10.10;5.53;;;29.40;99.90;;;;;;1754791;80;21297;-71
2022/05/11 10:26:04;;;;;;;10.78;4.92;;;29.40;99.90;;;;;;1765261;79;21191;-70
2022/05/11 10:28:38;;;;;;;11.53;5.10;;;29.50;99.90;;;;;;1759641;78;21253;-70
2022/05/11 10:31:09;;;;;;;12.10;5.55;;;29.40;99.90;;;;;;1758613;78;21116;-70
2022/05/11 10:33:43;;;;;;;10.65;5.40;;;29.40;99.90;;;;;;1777310;79;21659;-70
2022/05/11 10:36:15;;;;;;;13.03;5.67;;;29.40;99.90;;;;;;1754230;79;21208;-70
2022/05/11 10:38:48;;;;;;;14.50;5.45;;;29.40;99.90;;;;;;1762473;79;21650;-69
2022/05/11 10:41:22;;;;;;;16.85;5.85;;;29.50;99.90;;;;;;1760226;81;21635;-69
2022/05/11 10:43:55;;;;;;;13.22;6.03;;;29.60;99.90;;;;;;1724611;81;21139;-69
2022/05/11 10:46:31;;;;;;;14.23;6.87;;;29.40;99.90;;;;;;1720543;81;21710;-81
2022/05/11 10:49:03;;;;;;;12.45;6.42;;;29.60;99.90;;;;;;1730097;81;21240;-81
2022/05/11 10:51:38;;;;;;;12.25;6.10;;;29.50;99.90;;;;;;1719967;81;21248;-80
2022/05/11 10:54:11;;;;;;;11.25;6.17;;;29.50;99.90;;;;;;1743165;80;21622;-79
2022/05/11 10:56:46;;;;;;;;;;;29.50;99.90;;;;;;1749148;80;21206;-81
2022/05/11 10:59:23;;;;;;;7.87;5.87;;;29.40;99.90;;;;;;1744247;79;20207;-80
2022/05/11 11:01:56;;;;;;;17.15;6.28;;;29.40;99.90;;;;;;1671745;85;21227;-80
2022/05/11 11:04:30;;;;;;;12.73;5.40;;;29.40;99.90;;;;;;1674527;82;21753;-81
2022/05/11 11:07:16;;;;;;;10.58;5.50;;;29.40;99.90;;;;;;1721298;81;21208;-80
2022/05/11 11:09:42;;;;;;;11.28;5.40;;;29.40;99.90;;;;;;1776221;79;21179;-80
2022/05/11 11:12:13;;;;;;;11.18;5.72;;;29.50;99.90;;;;;;1772090;79;21176;-81
2022/05/11 11:14:49;;;;;;;10.23;5.33;;;29.30;99.90;;;;;;1757421;79;21167;-81
2022/05/11 11:17:23;;;;;;;12.73;7.08;;;29.40;99.90;;;;;;1727765;81;21268;-81
2022/05/11 11:19:56;;;;;;;11.80;7.60;;;29.10;99.90;;;;;;1748304;79;22031;-80
2022/05/11 11:22:28;;;;;;;10.78;6.35;;;29.10;99.90;;;;;;1756193;78;21127;-82
2022/05/11 11:25:09;;;;;;;9.13;5.80;;;29.00;99.90;;;;;;1728469;81;21147;-80
2022/05/11 11:27:43;;;;;;;7.33;4.95;;;29.00;99.90;;;;;;1739855;81;21734;-80
2022/05/11 11:30:14;;;;;;;9.28;4.90;;;29.00;99.90;;;;;;1711912;81;21213;-81
2022/05/11 11:32:47;;;;;;;10.95;5.33;;;29.00;99.90;;;;;;1740689;80;21214;-81
2022/05/11 11:35:21;;;;;;;9.90;5.30;;;28.90;99.90;;;;;;1761285;78;21281;-80
2022/05/11 11:37:54;;;;;;;13.28;5.45;;;28.80;99.90;;;;;;1772600;79;21232;-81
2022/05/11 11:40:32;;;;;;;11.40;5.87;;;28.80;99.90;;;;;;1755235;80;21112;-81
2022/05/11 11:45:39;;;;;;;7.50;5.05;;;28.80;99.90;;;;;;1750596;78;21194;-80
2022/05/11 11:48:13;;;;;;;8.43;5.50;;;28.80;99.90;;;;;;1755223;80;21174;-80
2022/05/11 11:50:46;;;;;;;10.28;5.70;;;28.70;99.90;;;;;;1725265;81;21200;-80
2022/05/11 11:53:20;;;;;;;7.80;5.35;;;28.80;99.90;;;;;;1716107;81;21325;-80
2022/05/11 11:55:52;;;;;;;7.65;5.35;;;28.70;99.90;;;;;;1687502;83;21256;-80
2022/05/11 11:58:25;;;;;;;7.20;5.22;;;28.70;99.90;;;;;;1748422;79;21208;-79
2022/05/11 12:00:59;;;;;;;8.33;5.35;;;28.80;99.90;;;;;;1745101;80;21190;-80
2022/05/11 12:03:33;;;;;;;8.90;5.58;;;28.70;99.90;;;;;;1711172;81;21234;-81
2022/05/11 12:16:23;;;;;;;8.50;6.10;;;28.60;99.90;;;;;;1783925;77;21221;-81
2022/05/11 12:18:55;;;;;;;7.65;6.10;;;28.80;99.90;;;;;;1794425;77;21525;-80
2022/05/11 12:21:29;;;;;;;7.83;6.30;;;28.70;99.90;;;;;;1764235;78;21174;-81
2022/05/11 12:24:02;;;;;;;8.53;5.33;;;28.70;99.90;;;;;;1763486;78;21177;-80
2022/05/11 12:26:35;;;;;;;12.70;7.10;;;28.70;99.90;;;;;;1810618;78;21191;-81
2022/05/11 12:31:42;;;;;;;11.12;7.35;;;28.50;99.90;;;;;;1710004;80;21299;-81
2022/05/11 12:34:14;;;;;;;9.25;6.33;;;28.70;99.90;;;;;;1732308;80;21727;-81
2022/05/11 12:36:45;;;;;;;15.68;6.55;;;28.50;99.90;;;;;;1766068;79;21216;-81
2022/05/11 12:39:17;;;;;;;8.03;6.22;;;28.50;99.90;;;;;;1735824;80;21171;-80
2022/05/11 12:41:48;;;;;;;8.28;6.30;;;28.60;99.90;;;;;;1741496;79;21171;-79
2022/05/11 12:44:24;;;;;;;9.23;6.00;;;28.50;99.90;;;;;;1789278;78;21881;-80
2022/05/11 12:46:56;;;;;;;8.55;6.10;;;28.60;99.90;;;;;;1755917;78;21124;-81
2022/05/11 12:49:27;;;;;;;6.60;5.67;;;28.50;99.90;;;;;;1744533;79;21179;-82
2022/05/11 12:52:05;;;;;;;7.72;5.65;;;28.50;99.90;;;;;;1716525;80;21132;-81
2022/05/11 12:54:34;;;;;;;10.65;6.15;;;28.60;99.90;;;;;;1726952;80;21199;-82
2022/05/11 12:57:12;;;;;;;9.05;6.25;;;28.50;99.90;;;;;;1710841;81;21286;-81
2022/05/11 12:59:44;;;;;;;8.85;6.45;;;28.50;99.90;;;;;;1716394;81;21288;-82
2022/05/11 13:02:17;;;;;;;12.73;6.35;;;28.50;99.90;;;;;;1786147;78;21093;-80
2022/05/11 13:04:51;;;;;;;10.90;6.33;;;28.50;99.90;;;;;;1744985;79;21243;-81
2022/05/11 13:07:24;;;;;;;12.43;6.45;;;28.40;99.90;;;;;;1775374;79;21277;-82
2022/05/11 13:09:58;;;;;;;9.40;6.22;;;28.40;99.90;;;;;;1750436;79;21187;-81
2022/05/11 13:12:30;;;;;;;9.08;6.58;;;28.50;99.90;;;;;;1746936;80;21249;-81
2022/05/11 13:15:04;;;;;;;9.35;6.28;;;28.60;99.90;;;;;;1786969;78;21202;-82
2022/05/11 13:17:36;;;;;;;10.13;6.95;;;28.40;99.90;;;;;;1779463;78;21120;-81
2022/05/11 13:20:09;;;;;;;12.03;6.95;;;28.50;99.90;;;;;;1784814;77;21268;-80
2022/05/11 13:22:41;;;;;;;11.38;6.72;;;28.50;99.90;;;;;;1768303;78;21115;-79
2022/05/11 13:25:14;;;;;;;9.78;6.72;;;28.50;99.90;;;;;;1758483;78;21234;-81
2022/05/11 13:27:50;;;;;;;9.25;6.40;;;28.40;99.90;;;;;;1772905;78;21151;-82
2022/05/11 13:30:22;;;;;;;9.28;6.72;;;28.40;99.90;;;;;;1783494;78;21755;-81
2022/05/11 13:32:54;;;;;;;9.35;7.03;;;28.40;99.90;;;;;;1774160;78;21255;-80
2022/05/11 13:35:27;;;;;;;12.37;6.47;;;28.50;99.90;;;;;;1799729;78;21121;-80
2022/05/11 13:38:01;;;;;;;13.45;7.00;;;28.40;99.90;;;;;;1793289;78;21205;-81
2022/05/11 13:40:34;;;;;;;11.55;7.08;;;28.50;99.90;;;;;;1780631;77;21175;-81
2022/05/11 13:43:08;;;;;;;11.90;6.60;;;28.50;99.90;;;;;;1785117;78;21175;-81
2022/05/11 13:45:41;;;;;;;11.95;6.60;;;28.50;99.90;;;;;;1779072;78;21305;-81
2022/05/11 13:48:15;;;;;;;12.03;6.87;;;28.60;99.90;;;;;;1770278;78;21569;-81
2022/05/11 13:50:49;;;;;;;10.45;6.50;;;28.50;99.90;;;;;;1766157;78;21229;-80
2022/05/11 13:53:23;;;;;;;9.10;6.33;;;28.50;99.90;;;;;;1763108;79;21131;-80